Folkestone, United Kingdom
Current Conditions -  °F | °C
As of 4:20 PM on Wednesday 28 Jan 2015 (Local Time) from EGMD Reporting Station
Few Clouds Few Clouds  
Wind Chill: 35°   Ceiling: Unl
Heat Index: 43°   Visibility: 6mi
Dew Point: 32°   Wind: 18mph
Humidity: 66%   Direction: 290°WNW
Pressure: 29.62"   Gusts: NA
Location:  51.08°N, 1.17°E
Report Text: EGMD 281620Z 29016KT 9999 FEW025 06/00 Q1003
Loading
Personal Weather Stations






























Interactive Weather Map New forecast layout! Learn more

10-Day Weather Forecast

Advertisements
Track Severe Weather on mobile